map of ROP home
ROP - Airport
Location
City:  Rota Island, Northern Mariana Islands, United States
Name:Benjamin Taisacan Manglona International Airport
ICAO:PGRO
IATA:ROP
FAA LID:GRO

Details
Type:Airport (Part 139 Class I)
Use:Public/Civil, International (customs landing rights)
Latitude:1410'28"N (14.174355)
Longitude:14514'28"E (145.241125)
Datum:WGS 1984
Elevation:607 ft (185 m)
Variation:0.59E (WMM2015 magnetic declination)
-0.07 annual change
Runways:1
Longest:7000 × 150 ft (2134 × 45.5 m), paved

Time
Time Zone:UTC+10
Local Time:

Weather
METAR:PGRO 162150Z 08015KT 7SM SCT012 BKN100 25/22 A2985 RMK WIND DATA ESTIMATED
TAF:PGRO 162041Z 1621/1718 05015KT P6SM VCSH SCT012 BKN100= TAF PGWT 162041Z 1621/1718 07018KT P6SM VCSH SCT015 SCT050

Related Locations
Nearby:
Farthest:SNME: 12196 mi / 19628 km
Mata de So Joo [Costa dos Coqueiros], BA, BR

Find:

   beyond  
but within

Other Information
Maps:
NOTAMs:
Links:
Sources:

  
  • flag of United States
  • flag of Northern Mariana Islands
  

Sectional Chart

Flight Planning
at skyvector.com

Satellite Image

Google Maps Satellite view

 

Copyright © 2004-2019 Karl L. Swartz. All rights reserved.
The Great Circle Mapper name and logo are trademarks of the Great Circle Mapper.
All other trademarks mentioned herein belong to their respective owners.
Please see credits for attibutions and further copyright information.

  Follow gcmap on Facebook Follow gcmap on Twitter Follow gcmap on Google+ GCmap on LinkedIn

hCard Microformat

Geo Microformat